sensor_id;sensor_type;location;lat;lon;timestamp;P1;durP1;ratioP1;P2;durP2;ratioP2
48207;SDS011;33997;53.278;9.708;2022-08-21T00:02:02;6.32;;;2.10;;
48207;SDS011;33997;53.278;9.708;2022-08-21T00:04:29;4.25;;;1.67;;
48207;SDS011;33997;53.278;9.708;2022-08-21T00:06:55;6.85;;;2.20;;
48207;SDS011;33997;53.278;9.708;2022-08-21T00:09:21;2.70;;;1.60;;
48207;SDS011;33997;53.278;9.708;2022-08-21T00:11:47;5.30;;;1.80;;
48207;SDS011;33997;53.278;9.708;2022-08-21T00:14:13;5.72;;;2.08;;
48207;SDS011;33997;53.278;9.708;2022-08-21T00:16:39;5.70;;;2.13;;
48207;SDS011;33997;53.278;9.708;2022-08-21T00:19:05;3.25;;;1.85;;
48207;SDS011;33997;53.278;9.708;2022-08-21T00:21:32;6.55;;;2.00;;
48207;SDS011;33997;53.278;9.708;2022-08-21T00:23:59;3.53;;;2.10;;
48207;SDS011;33997;53.278;9.708;2022-08-21T00:26:24;8.85;;;2.08;;
48207;SDS011;33997;53.278;9.708;2022-08-21T00:28:51;6.18;;;2.10;;
48207;SDS011;33997;53.278;9.708;2022-08-21T00:31:16;6.00;;;1.83;;
48207;SDS011;33997;53.278;9.708;2022-08-21T00:33:43;9.27;;;2.15;;
48207;SDS011;33997;53.278;9.708;2022-08-21T00:36:09;5.85;;;2.35;;
48207;SDS011;33997;53.278;9.708;2022-08-21T00:38:35;5.57;;;2.00;;
48207;SDS011;33997;53.278;9.708;2022-08-21T00:41:05;5.20;;;1.90;;
48207;SDS011;33997;53.278;9.708;2022-08-21T00:43:33;4.07;;;1.83;;
48207;SDS011;33997;53.278;9.708;2022-08-21T00:46:01;4.90;;;1.80;;
48207;SDS011;33997;53.278;9.708;2022-08-21T00:48:28;7.40;;;2.20;;
48207;SDS011;33997;53.278;9.708;2022-08-21T00:50:58;4.43;;;1.80;;
48207;SDS011;33997;53.278;9.708;2022-08-21T00:53:35;3.38;;;1.83;;
48207;SDS011;33997;53.278;9.708;2022-08-21T00:56:03;5.22;;;2.08;;
48207;SDS011;33997;53.278;9.708;2022-08-21T00:58:30;4.22;;;1.98;;
48207;SDS011;33997;53.278;9.708;2022-08-21T01:00:56;3.38;;;1.77;;
48207;SDS011;33997;53.278;9.708;2022-08-21T01:03:24;5.85;;;2.03;;
48207;SDS011;33997;53.278;9.708;2022-08-21T01:05:50;5.57;;;1.90;;
48207;SDS011;33997;53.278;9.708;2022-08-21T01:08:17;5.97;;;2.20;;
48207;SDS011;33997;53.278;9.708;2022-08-21T01:10:43;4.30;;;2.30;;
48207;SDS011;33997;53.278;9.708;2022-08-21T01:13:10;4.97;;;2.10;;
48207;SDS011;33997;53.278;9.708;2022-08-21T01:15:39;5.20;;;2.00;;
48207;SDS011;33997;53.278;9.708;2022-08-21T01:18:09;5.72;;;2.17;;
48207;SDS011;33997;53.278;9.708;2022-08-21T01:20:37;4.20;;;1.98;;
48207;SDS011;33997;53.278;9.708;2022-08-21T01:23:06;6.18;;;2.08;;
48207;SDS011;33997;53.278;9.708;2022-08-21T01:25:32;4.85;;;2.47;;
48207;SDS011;33997;53.278;9.708;2022-08-21T01:27:59;5.38;;;2.33;;
48207;SDS011;33997;53.278;9.708;2022-08-21T01:30:31;6.78;;;2.10;;
48207;SDS011;33997;53.278;9.708;2022-08-21T01:33:01;5.63;;;1.85;;
48207;SDS011;33997;53.278;9.708;2022-08-21T01:35:27;5.55;;;2.33;;
48207;SDS011;33997;53.278;9.708;2022-08-21T01:37:53;5.20;;;2.35;;
48207;SDS011;33997;53.278;9.708;2022-08-21T01:40:18;4.75;;;2.05;;
48207;SDS011;33997;53.278;9.708;2022-08-21T01:42:44;7.20;;;1.92;;
48207;SDS011;33997;53.278;9.708;2022-08-21T01:45:11;9.98;;;2.40;;
48207;SDS011;33997;53.278;9.708;2022-08-21T01:47:38;7.40;;;2.20;;
48207;SDS011;33997;53.278;9.708;2022-08-21T01:50:05;4.90;;;2.30;;
48207;SDS011;33997;53.278;9.708;2022-08-21T01:52:32;5.32;;;1.90;;
48207;SDS011;33997;53.278;9.708;2022-08-21T01:54:58;5.78;;;2.17;;
48207;SDS011;33997;53.278;9.708;2022-08-21T01:57:24;7.90;;;2.20;;
48207;SDS011;33997;53.278;9.708;2022-08-21T01:59:49;6.35;;;2.20;;
48207;SDS011;33997;53.278;9.708;2022-08-21T02:02:15;5.30;;;2.00;;
48207;SDS011;33997;53.278;9.708;2022-08-21T02:04:40;6.00;;;2.25;;
48207;SDS011;33997;53.278;9.708;2022-08-21T02:07:06;4.45;;;1.85;;
48207;SDS011;33997;53.278;9.708;2022-08-21T02:09:32;4.72;;;2.00;;
48207;SDS011;33997;53.278;9.708;2022-08-21T02:11:58;4.30;;;1.92;;
48207;SDS011;33997;53.278;9.708;2022-08-21T02:14:24;6.20;;;2.00;;
48207;SDS011;33997;53.278;9.708;2022-08-21T02:16:50;4.85;;;1.75;;
48207;SDS011;33997;53.278;9.708;2022-08-21T02:19:16;5.95;;;2.10;;
48207;SDS011;33997;53.278;9.708;2022-08-21T02:21:42;6.13;;;2.13;;
48207;SDS011;33997;53.278;9.708;2022-08-21T02:24:08;4.28;;;1.83;;
48207;SDS011;33997;53.278;9.708;2022-08-21T02:26:34;5.78;;;2.28;;
48207;SDS011;33997;53.278;9.708;2022-08-21T02:29:00;4.38;;;2.00;;
48207;SDS011;33997;53.278;9.708;2022-08-21T02:31:26;4.72;;;2.08;;
48207;SDS011;33997;53.278;9.708;2022-08-21T02:33:51;5.93;;;2.25;;
48207;SDS011;33997;53.278;9.708;2022-08-21T02:36:17;5.65;;;2.42;;
48207;SDS011;33997;53.278;9.708;2022-08-21T02:38:43;7.20;;;2.20;;
48207;SDS011;33997;53.278;9.708;2022-08-21T02:41:19;6.20;;;2.85;;
48207;SDS011;33997;53.278;9.708;2022-08-21T02:43:46;5.13;;;2.38;;
48207;SDS011;33997;53.278;9.708;2022-08-21T02:46:12;5.78;;;2.70;;
48207;SDS011;33997;53.278;9.708;2022-08-21T02:48:40;5.75;;;2.53;;
48207;SDS011;33997;53.278;9.708;2022-08-21T02:51:10;6.50;;;2.72;;
48207;SDS011;33997;53.278;9.708;2022-08-21T02:53:42;6.28;;;2.35;;
48207;SDS011;33997;53.278;9.708;2022-08-21T02:56:10;5.57;;;2.50;;
48207;SDS011;33997;53.278;9.708;2022-08-21T02:58:46;5.32;;;2.40;;
48207;SDS011;33997;53.278;9.708;2022-08-21T03:01:14;6.72;;;2.70;;
48207;SDS011;33997;53.278;9.708;2022-08-21T03:03:41;8.57;;;2.58;;
48207;SDS011;33997;53.278;9.708;2022-08-21T03:06:09;4.15;;;2.20;;
48207;SDS011;33997;53.278;9.708;2022-08-21T03:08:36;4.00;;;2.08;;
48207;SDS011;33997;53.278;9.708;2022-08-21T03:11:02;7.82;;;2.97;;
48207;SDS011;33997;53.278;9.708;2022-08-21T03:13:29;6.90;;;3.08;;
48207;SDS011;33997;53.278;9.708;2022-08-21T03:15:54;7.63;;;3.03;;
48207;SDS011;33997;53.278;9.708;2022-08-21T03:18:20;8.85;;;2.60;;
48207;SDS011;33997;53.278;9.708;2022-08-21T03:20:46;7.63;;;2.72;;
48207;SDS011;33997;53.278;9.708;2022-08-21T03:23:13;5.72;;;2.70;;
48207;SDS011;33997;53.278;9.708;2022-08-21T03:25:40;7.30;;;2.63;;
48207;SDS011;33997;53.278;9.708;2022-08-21T03:28:17;5.38;;;2.22;;
48207;SDS011;33997;53.278;9.708;2022-08-21T03:30:45;5.70;;;2.45;;
48207;SDS011;33997;53.278;9.708;2022-08-21T03:33:12;4.88;;;2.33;;
48207;SDS011;33997;53.278;9.708;2022-08-21T03:35:39;6.25;;;2.50;;
48207;SDS011;33997;53.278;9.708;2022-08-21T03:38:06;4.47;;;2.17;;
48207;SDS011;33997;53.278;9.708;2022-08-21T03:40:32;6.30;;;2.30;;
48207;SDS011;33997;53.278;9.708;2022-08-21T03:42:57;4.18;;;2.13;;
48207;SDS011;33997;53.278;9.708;2022-08-21T03:45:24;8.43;;;2.53;;
48207;SDS011;33997;53.278;9.708;2022-08-21T03:48:00;4.30;;;2.28;;
48207;SDS011;33997;53.278;9.708;2022-08-21T03:50:32;4.97;;;2.13;;
48207;SDS011;33997;53.278;9.708;2022-08-21T03:53:00;4.60;;;2.15;;
48207;SDS011;33997;53.278;9.708;2022-08-21T03:55:26;4.28;;;2.22;;
48207;SDS011;33997;53.278;9.708;2022-08-21T03:57:52;4.78;;;2.40;;
48207;SDS011;33997;53.278;9.708;2022-08-21T04:00:18;6.35;;;2.53;;
48207;SDS011;33997;53.278;9.708;2022-08-21T04:02:44;3.50;;;2.30;;
48207;SDS011;33997;53.278;9.708;2022-08-21T04:05:11;6.18;;;2.28;;
48207;SDS011;33997;53.278;9.708;2022-08-21T04:07:38;6.63;;;2.45;;
48207;SDS011;33997;53.278;9.708;2022-08-21T04:10:05;10.25;;;2.60;;
48207;SDS011;33997;53.278;9.708;2022-08-21T04:12:32;5.57;;;2.58;;
48207;SDS011;33997;53.278;9.708;2022-08-21T04:14:57;7.03;;;2.85;;
48207;SDS011;33997;53.278;9.708;2022-08-21T04:17:23;7.50;;;3.30;;
48207;SDS011;33997;53.278;9.708;2022-08-21T04:19:49;5.65;;;2.92;;
48207;SDS011;33997;53.278;9.708;2022-08-21T04:22:15;8.18;;;3.65;;
48207;SDS011;33997;53.278;9.708;2022-08-21T04:24:41;7.68;;;3.50;;
48207;SDS011;33997;53.278;9.708;2022-08-21T04:27:07;6.00;;;3.15;;
48207;SDS011;33997;53.278;9.708;2022-08-21T04:29:32;6.43;;;3.08;;
48207;SDS011;33997;53.278;9.708;2022-08-21T04:31:58;10.27;;;3.38;;
48207;SDS011;33997;53.278;9.708;2022-08-21T04:34:24;4.45;;;2.88;;
48207;SDS011;33997;53.278;9.708;2022-08-21T04:36:49;8.10;;;3.15;;
48207;SDS011;33997;53.278;9.708;2022-08-21T04:39:15;6.25;;;3.05;;
48207;SDS011;33997;53.278;9.708;2022-08-21T04:41:40;5.53;;;2.63;;
48207;SDS011;33997;53.278;9.708;2022-08-21T04:44:06;6.53;;;3.10;;
48207;SDS011;33997;53.278;9.708;2022-08-21T04:46:33;5.18;;;2.40;;
48207;SDS011;33997;53.278;9.708;2022-08-21T04:48:59;5.03;;;2.38;;
48207;SDS011;33997;53.278;9.708;2022-08-21T04:51:29;5.85;;;2.17;;
48207;SDS011;33997;53.278;9.708;2022-08-21T04:54:06;6.47;;;2.53;;
48207;SDS011;33997;53.278;9.708;2022-08-21T04:56:37;4.70;;;1.90;;
48207;SDS011;33997;53.278;9.708;2022-08-21T04:59:11;4.80;;;2.22;;
48207;SDS011;33997;53.278;9.708;2022-08-21T05:01:43;6.65;;;2.00;;
48207;SDS011;33997;53.278;9.708;2022-08-21T05:04:10;3.22;;;1.50;;
48207;SDS011;33997;53.278;9.708;2022-08-21T05:06:38;7.85;;;1.95;;
48207;SDS011;33997;53.278;9.708;2022-08-21T05:09:06;4.55;;;1.80;;
48207;SDS011;33997;53.278;9.708;2022-08-21T05:11:34;5.07;;;1.90;;
48207;SDS011;33997;53.278;9.708;2022-08-21T05:14:00;4.47;;;1.80;;
48207;SDS011;33997;53.278;9.708;2022-08-21T05:16:25;5.38;;;2.13;;
48207;SDS011;33997;53.278;9.708;2022-08-21T05:18:51;5.97;;;1.67;;
48207;SDS011;33997;53.278;9.708;2022-08-21T05:21:17;4.68;;;1.52;;
48207;SDS011;33997;53.278;9.708;2022-08-21T05:23:42;2.88;;;1.38;;
48207;SDS011;33997;53.278;9.708;2022-08-21T05:26:08;5.32;;;1.92;;
48207;SDS011;33997;53.278;9.708;2022-08-21T05:28:34;6.25;;;2.03;;
48207;SDS011;33997;53.278;9.708;2022-08-21T05:30:59;6.07;;;1.75;;
48207;SDS011;33997;53.278;9.708;2022-08-21T05:33:25;7.10;;;1.50;;
48207;SDS011;33997;53.278;9.708;2022-08-21T05:35:51;5.38;;;1.60;;
48207;SDS011;33997;53.278;9.708;2022-08-21T05:38:18;5.03;;;1.50;;
48207;SDS011;33997;53.278;9.708;2022-08-21T05:40:45;5.35;;;1.38;;
48207;SDS011;33997;53.278;9.708;2022-08-21T05:43:11;2.72;;;1.08;;
48207;SDS011;33997;53.278;9.708;2022-08-21T05:45:36;4.32;;;1.38;;
48207;SDS011;33997;53.278;9.708;2022-08-21T05:48:06;5.03;;;1.40;;
48207;SDS011;33997;53.278;9.708;2022-08-21T05:50:32;6.20;;;1.58;;
48207;SDS011;33997;53.278;9.708;2022-08-21T05:52:57;5.30;;;1.60;;
48207;SDS011;33997;53.278;9.708;2022-08-21T05:55:23;4.85;;;1.33;;
48207;SDS011;33997;53.278;9.708;2022-08-21T05:57:48;3.30;;;1.13;;
48207;SDS011;33997;53.278;9.708;2022-08-21T06:00:14;5.90;;;1.10;;
48207;SDS011;33997;53.278;9.708;2022-08-21T06:02:41;4.80;;;1.20;;
48207;SDS011;33997;53.278;9.708;2022-08-21T06:05:07;6.63;;;1.77;;
48207;SDS011;33997;53.278;9.708;2022-08-21T06:07:32;5.45;;;1.50;;
48207;SDS011;33997;53.278;9.708;2022-08-21T06:09:58;6.25;;;1.70;;
48207;SDS011;33997;53.278;9.708;2022-08-21T06:12:25;5.50;;;1.67;;
48207;SDS011;33997;53.278;9.708;2022-08-21T06:14:50;3.35;;;1.30;;
48207;SDS011;33997;53.278;9.708;2022-08-21T06:17:17;5.18;;;1.42;;
48207;SDS011;33997;53.278;9.708;2022-08-21T06:19:43;3.28;;;1.67;;
48207;SDS011;33997;53.278;9.708;2022-08-21T06:22:08;9.02;;;1.38;;
48207;SDS011;33997;53.278;9.708;2022-08-21T06:24:34;4.28;;;1.60;;
48207;SDS011;33997;53.278;9.708;2022-08-21T06:27:06;4.35;;;1.33;;
48207;SDS011;33997;53.278;9.708;2022-08-21T06:29:33;6.70;;;1.52;;
48207;SDS011;33997;53.278;9.708;2022-08-21T06:31:59;7.80;;;1.58;;
48207;SDS011;33997;53.278;9.708;2022-08-21T06:34:25;2.85;;;1.30;;
48207;SDS011;33997;53.278;9.708;2022-08-21T06:36:50;2.58;;;1.30;;
48207;SDS011;33997;53.278;9.708;2022-08-21T06:39:16;5.03;;;1.45;;
48207;SDS011;33997;53.278;9.708;2022-08-21T06:41:41;3.28;;;1.35;;
48207;SDS011;33997;53.278;9.708;2022-08-21T06:44:07;5.80;;;1.58;;
48207;SDS011;33997;53.278;9.708;2022-08-21T06:46:33;3.17;;;1.30;;
48207;SDS011;33997;53.278;9.708;2022-08-21T06:48:58;3.08;;;1.20;;
48207;SDS011;33997;53.278;9.708;2022-08-21T06:51:24;4.68;;;1.45;;
48207;SDS011;33997;53.278;9.708;2022-08-21T06:53:50;6.90;;;1.60;;
48207;SDS011;33997;53.278;9.708;2022-08-21T06:56:16;4.57;;;1.65;;
48207;SDS011;33997;53.278;9.708;2022-08-21T06:58:42;4.97;;;1.50;;
48207;SDS011;33997;53.278;9.708;2022-08-21T07:01:08;8.55;;;1.38;;
48207;SDS011;33997;53.278;9.708;2022-08-21T07:03:35;5.68;;;1.25;;
48207;SDS011;33997;53.278;9.708;2022-08-21T07:06:02;3.17;;;1.38;;
48207;SDS011;33997;53.278;9.708;2022-08-21T07:08:30;2.95;;;1.30;;
48207;SDS011;33997;53.278;9.708;2022-08-21T07:10:56;5.50;;;1.52;;
48207;SDS011;33997;53.278;9.708;2022-08-21T07:13:23;6.05;;;1.58;;
48207;SDS011;33997;53.278;9.708;2022-08-21T07:15:49;6.57;;;1.45;;
48207;SDS011;33997;53.278;9.708;2022-08-21T07:18:14;7.25;;;1.52;;
48207;SDS011;33997;53.278;9.708;2022-08-21T07:20:40;2.95;;;1.15;;
48207;SDS011;33997;53.278;9.708;2022-08-21T07:23:12;7.60;;;1.63;;
48207;SDS011;33997;53.278;9.708;2022-08-21T07:25:47;3.63;;;1.40;;
48207;SDS011;33997;53.278;9.708;2022-08-21T07:28:13;3.25;;;1.45;;
48207;SDS011;33997;53.278;9.708;2022-08-21T07:30:38;5.32;;;1.90;;
48207;SDS011;33997;53.278;9.708;2022-08-21T07:33:04;4.78;;;1.40;;
48207;SDS011;33997;53.278;9.708;2022-08-21T07:35:29;8.65;;;1.63;;
48207;SDS011;33997;53.278;9.708;2022-08-21T07:37:56;8.65;;;2.05;;
48207;SDS011;33997;53.278;9.708;2022-08-21T07:40:21;5.35;;;1.80;;
48207;SDS011;33997;53.278;9.708;2022-08-21T07:42:47;5.25;;;1.90;;
48207;SDS011;33997;53.278;9.708;2022-08-21T07:45:16;4.65;;;1.48;;
48207;SDS011;33997;53.278;9.708;2022-08-21T07:47:43;11.13;;;2.22;;
48207;SDS011;33997;53.278;9.708;2022-08-21T07:50:09;6.60;;;1.80;;
48207;SDS011;33997;53.278;9.708;2022-08-21T07:52:36;8.35;;;2.38;;
48207;SDS011;33997;53.278;9.708;2022-08-21T07:55:03;6.82;;;2.22;;
48207;SDS011;33997;53.278;9.708;2022-08-21T07:57:29;5.55;;;1.80;;
48207;SDS011;33997;53.278;9.708;2022-08-21T07:59:55;5.93;;;1.75;;
48207;SDS011;33997;53.278;9.708;2022-08-21T08:02:21;6.43;;;1.77;;
48207;SDS011;33997;53.278;9.708;2022-08-21T08:04:51;5.90;;;1.70;;
48207;SDS011;33997;53.278;9.708;2022-08-21T08:07:17;8.85;;;1.73;;
48207;SDS011;33997;53.278;9.708;2022-08-21T08:09:42;10.88;;;2.38;;
48207;SDS011;33997;53.278;9.708;2022-08-21T08:12:08;9.00;;;2.10;;
48207;SDS011;33997;53.278;9.708;2022-08-21T08:14:34;7.72;;;2.00;;
48207;SDS011;33997;53.278;9.708;2022-08-21T08:17:00;5.57;;;2.28;;
48207;SDS011;33997;53.278;9.708;2022-08-21T08:19:27;6.10;;;2.00;;
48207;SDS011;33997;53.278;9.708;2022-08-21T08:21:52;9.68;;;2.20;;
48207;SDS011;33997;53.278;9.708;2022-08-21T08:24:18;6.88;;;2.00;;
48207;SDS011;33997;53.278;9.708;2022-08-21T08:26:44;8.13;;;2.25;;
48207;SDS011;33997;53.278;9.708;2022-08-21T08:29:09;5.40;;;2.10;;
48207;SDS011;33997;53.278;9.708;2022-08-21T08:31:35;7.70;;;2.40;;
48207;SDS011;33997;53.278;9.708;2022-08-21T08:34:00;5.15;;;1.95;;
48207;SDS011;33997;53.278;9.708;2022-08-21T08:36:37;5.97;;;2.38;;
48207;SDS011;33997;53.278;9.708;2022-08-21T08:39:04;8.20;;;2.10;;
48207;SDS011;33997;53.278;9.708;2022-08-21T08:41:31;8.10;;;2.08;;
48207;SDS011;33997;53.278;9.708;2022-08-21T08:44:00;7.55;;;1.77;;
48207;SDS011;33997;53.278;9.708;2022-08-21T08:46:31;8.30;;;2.08;;
48207;SDS011;33997;53.278;9.708;2022-08-21T08:49:03;11.82;;;2.38;;
48207;SDS011;33997;53.278;9.708;2022-08-21T08:54:41;6.55;;;1.77;;
48207;SDS011;33997;53.278;9.708;2022-08-21T08:57:14;7.28;;;2.05;;
48207;SDS011;33997;53.278;9.708;2022-08-21T08:59:45;8.10;;;1.63;;
48207;SDS011;33997;53.278;9.708;2022-08-21T09:02:13;6.88;;;1.48;;
48207;SDS011;33997;53.278;9.708;2022-08-21T09:04:40;6.28;;;1.88;;
48207;SDS011;33997;53.278;9.708;2022-08-21T09:07:12;6.03;;;1.83;;
48207;SDS011;33997;53.278;9.708;2022-08-21T09:09:57;6.05;;;1.80;;
48207;SDS011;33997;53.278;9.708;2022-08-21T09:12:41;8.38;;;1.83;;
48207;SDS011;33997;53.278;9.708;2022-08-21T09:16:00;6.40;;;2.08;;
48207;SDS011;33997;53.278;9.708;2022-08-21T09:26:52;7.88;;;2.17;;
48207;SDS011;33997;53.278;9.708;2022-08-21T09:29:20;2.75;;;1.17;;
48207;SDS011;33997;53.278;9.708;2022-08-21T09:31:48;5.72;;;1.95;;
48207;SDS011;33997;53.278;9.708;2022-08-21T09:34:23;5.95;;;1.70;;
48207;SDS011;33997;53.278;9.708;2022-08-21T09:36:57;5.82;;;1.45;;
48207;SDS011;33997;53.278;9.708;2022-08-21T09:39:29;6.90;;;1.80;;
48207;SDS011;33997;53.278;9.708;2022-08-21T09:44:27;6.38;;;1.85;;
48207;SDS011;33997;53.278;9.708;2022-08-21T09:46:54;5.03;;;1.55;;
48207;SDS011;33997;53.278;9.708;2022-08-21T09:49:30;4.40;;;1.65;;
48207;SDS011;33997;53.278;9.708;2022-08-21T09:51:58;5.90;;;1.48;;
48207;SDS011;33997;53.278;9.708;2022-08-21T09:54:31;4.68;;;1.35;;
48207;SDS011;33997;53.278;9.708;2022-08-21T09:57:00;4.47;;;1.58;;
48207;SDS011;33997;53.278;9.708;2022-08-21T09:59:56;3.90;;;1.25;;
48207;SDS011;33997;53.278;9.708;2022-08-21T10:02:35;3.83;;;1.50;;
48207;SDS011;33997;53.278;9.708;2022-08-21T10:05:22;5.78;;;1.33;;
48207;SDS011;33997;53.278;9.708;2022-08-21T10:07:48;4.72;;;1.40;;
48207;SDS011;33997;53.278;9.708;2022-08-21T10:10:17;3.22;;;1.40;;
48207;SDS011;33997;53.278;9.708;2022-08-21T10:13:03;3.90;;;1.27;;
48207;SDS011;33997;53.278;9.708;2022-08-21T10:21:17;3.63;;;1.33;;
48207;SDS011;33997;53.278;9.708;2022-08-21T10:29:37;2.83;;;0.88;;
48207;SDS011;33997;53.278;9.708;2022-08-21T10:46:11;5.28;;;1.13;;
48207;SDS011;33997;53.278;9.708;2022-08-21T10:48:50;6.90;;;1.10;;
48207;SDS011;33997;53.278;9.708;2022-08-21T10:57:02;6.57;;;1.23;;
48207;SDS011;33997;53.278;9.708;2022-08-21T10:59:38;2.97;;;0.93;;
48207;SDS011;33997;53.278;9.708;2022-08-21T11:05:10;4.30;;;1.02;;
48207;SDS011;33997;53.278;9.708;2022-08-21T11:10:21;2.92;;;1.00;;
48207;SDS011;33997;53.278;9.708;2022-08-21T11:12:54;4.05;;;1.10;;
48207;SDS011;33997;53.278;9.708;2022-08-21T11:15:26;5.57;;;1.27;;
48207;SDS011;33997;53.278;9.708;2022-08-21T11:18:04;4.05;;;1.05;;
48207;SDS011;33997;53.278;9.708;2022-08-21T11:20:40;5.72;;;1.10;;
48207;SDS011;33997;53.278;9.708;2022-08-21T11:23:14;6.10;;;1.00;;
48207;SDS011;33997;53.278;9.708;2022-08-21T11:25:47;3.45;;;0.90;;
48207;SDS011;33997;53.278;9.708;2022-08-21T11:28:25;4.45;;;1.15;;
48207;SDS011;33997;53.278;9.708;2022-08-21T11:30:58;3.65;;;1.00;;
48207;SDS011;33997;53.278;9.708;2022-08-21T11:33:42;4.72;;;1.10;;
48207;SDS011;33997;53.278;9.708;2022-08-21T11:39:02;5.75;;;1.25;;
48207;SDS011;33997;53.278;9.708;2022-08-21T11:41:43;3.00;;;0.90;;
48207;SDS011;33997;53.278;9.708;2022-08-21T11:44:37;4.40;;;1.13;;
48207;SDS011;33997;53.278;9.708;2022-08-21T11:47:53;4.15;;;0.93;;
48207;SDS011;33997;53.278;9.708;2022-08-21T11:50:29;4.63;;;1.35;;
48207;SDS011;33997;53.278;9.708;2022-08-21T11:53:00;3.78;;;1.25;;
48207;SDS011;33997;53.278;9.708;2022-08-21T11:55:58;6.90;;;1.35;;
48207;SDS011;33997;53.278;9.708;2022-08-21T11:58:36;5.53;;;1.15;;
48207;SDS011;33997;53.278;9.708;2022-08-21T12:01:07;3.75;;;1.13;;
48207;SDS011;33997;53.278;9.708;2022-08-21T12:03:36;4.13;;;1.20;;
48207;SDS011;33997;53.278;9.708;2022-08-21T12:06:07;5.38;;;1.10;;
48207;SDS011;33997;53.278;9.708;2022-08-21T12:08:39;5.53;;;1.20;;
48207;SDS011;33997;53.278;9.708;2022-08-21T12:11:08;9.10;;;1.48;;
48207;SDS011;33997;53.278;9.708;2022-08-21T12:13:54;7.88;;;1.17;;
48207;SDS011;33997;53.278;9.708;2022-08-21T12:16:33;5.03;;;1.50;;
48207;SDS011;33997;53.278;9.708;2022-08-21T12:19:07;5.90;;;1.40;;
48207;SDS011;33997;53.278;9.708;2022-08-21T12:21:58;4.18;;;1.23;;
48207;SDS011;33997;53.278;9.708;2022-08-21T12:27:00;3.08;;;1.35;;
48207;SDS011;33997;53.278;9.708;2022-08-21T12:29:50;5.47;;;1.50;;
48207;SDS011;33997;53.278;9.708;2022-08-21T12:34:50;3.80;;;1.25;;
48207;SDS011;33997;53.278;9.708;2022-08-21T12:40:28;7.43;;;1.30;;
48207;SDS011;33997;53.278;9.708;2022-08-21T12:42:59;3.78;;;1.15;;
48207;SDS011;33997;53.278;9.708;2022-08-21T12:45:34;6.22;;;1.23;;
48207;SDS011;33997;53.278;9.708;2022-08-21T12:48:13;5.10;;;1.10;;
48207;SDS011;33997;53.278;9.708;2022-08-21T12:51:26;4.18;;;1.30;;
48207;SDS011;33997;53.278;9.708;2022-08-21T12:53:48;4.15;;;1.27;;
48207;SDS011;33997;53.278;9.708;2022-08-21T12:56:19;4.20;;;1.45;;
48207;SDS011;33997;53.278;9.708;2022-08-21T12:58:48;4.43;;;1.20;;
48207;SDS011;33997;53.278;9.708;2022-08-21T13:01:24;2.25;;;0.90;;
48207;SDS011;33997;53.278;9.708;2022-08-21T13:04:00;4.30;;;1.08;;
48207;SDS011;33997;53.278;9.708;2022-08-21T13:06:29;4.28;;;1.23;;
48207;SDS011;33997;53.278;9.708;2022-08-21T13:09:04;3.10;;;1.10;;
48207;SDS011;33997;53.278;9.708;2022-08-21T13:13:57;4.97;;;1.05;;
48207;SDS011;33997;53.278;9.708;2022-08-21T13:16:25;5.10;;;1.40;;
48207;SDS011;33997;53.278;9.708;2022-08-21T13:19:11;2.67;;;0.80;;
48207;SDS011;33997;53.278;9.708;2022-08-21T13:21:42;4.10;;;0.97;;
48207;SDS011;33997;53.278;9.708;2022-08-21T13:26:40;4.55;;;1.30;;
48207;SDS011;33997;53.278;9.708;2022-08-21T13:29:07;3.50;;;1.00;;
48207;SDS011;33997;53.278;9.708;2022-08-21T13:31:37;3.38;;;1.23;;
48207;SDS011;33997;53.278;9.708;2022-08-21T13:34:07;3.33;;;0.90;;
48207;SDS011;33997;53.278;9.708;2022-08-21T13:36:36;3.47;;;1.10;;
48207;SDS011;33997;53.278;9.708;2022-08-21T13:39:06;4.00;;;1.02;;
48207;SDS011;33997;53.278;9.708;2022-08-21T13:41:35;5.82;;;1.10;;
48207;SDS011;33997;53.278;9.708;2022-08-21T13:44:18;4.40;;;1.10;;
48207;SDS011;33997;53.278;9.708;2022-08-21T13:46:46;3.90;;;1.13;;
48207;SDS011;33997;53.278;9.708;2022-08-21T13:49:14;6.38;;;1.13;;
48207;SDS011;33997;53.278;9.708;2022-08-21T13:51:42;6.05;;;1.27;;
48207;SDS011;33997;53.278;9.708;2022-08-21T13:57:18;2.72;;;1.13;;
48207;SDS011;33997;53.278;9.708;2022-08-21T13:59:49;4.35;;;1.15;;
48207;SDS011;33997;53.278;9.708;2022-08-21T14:02:18;2.22;;;1.00;;
48207;SDS011;33997;53.278;9.708;2022-08-21T14:04:51;3.70;;;1.17;;
48207;SDS011;33997;53.278;9.708;2022-08-21T14:07:25;2.85;;;1.00;;
48207;SDS011;33997;53.278;9.708;2022-08-21T14:09:56;2.58;;;1.00;;
48207;SDS011;33997;53.278;9.708;2022-08-21T14:12:29;2.10;;;0.70;;
48207;SDS011;33997;53.278;9.708;2022-08-21T14:15:03;4.50;;;1.02;;
48207;SDS011;33997;53.278;9.708;2022-08-21T14:17:32;5.70;;;1.17;;
48207;SDS011;33997;53.278;9.708;2022-08-21T14:20:04;2.88;;;0.90;;
48207;SDS011;33997;53.278;9.708;2022-08-21T14:22:39;4.60;;;1.48;;
48207;SDS011;33997;53.278;9.708;2022-08-21T14:25:08;6.60;;;1.20;;
48207;SDS011;33997;53.278;9.708;2022-08-21T14:27:39;3.75;;;0.95;;
48207;SDS011;33997;53.278;9.708;2022-08-21T14:30:31;3.55;;;1.00;;
48207;SDS011;33997;53.278;9.708;2022-08-21T14:32:59;2.40;;;0.82;;
48207;SDS011;33997;53.278;9.708;2022-08-21T14:35:25;3.03;;;1.05;;
48207;SDS011;33997;53.278;9.708;2022-08-21T14:37:51;2.05;;;0.93;;
48207;SDS011;33997;53.278;9.708;2022-08-21T14:40:18;2.92;;;1.00;;
48207;SDS011;33997;53.278;9.708;2022-08-21T14:42:46;5.00;;;1.20;;
48207;SDS011;33997;53.278;9.708;2022-08-21T14:45:15;2.83;;;0.93;;
48207;SDS011;33997;53.278;9.708;2022-08-21T14:47:42;7.10;;;1.13;;
48207;SDS011;33997;53.278;9.708;2022-08-21T14:50:09;4.78;;;0.95;;
48207;SDS011;33997;53.278;9.708;2022-08-21T14:52:36;4.28;;;0.95;;
48207;SDS011;33997;53.278;9.708;2022-08-21T14:55:02;3.38;;;1.05;;
48207;SDS011;33997;53.278;9.708;2022-08-21T14:57:29;1.95;;;0.80;;
48207;SDS011;33997;53.278;9.708;2022-08-21T14:59:56;3.05;;;1.00;;
48207;SDS011;33997;53.278;9.708;2022-08-21T15:02:22;4.25;;;1.23;;
48207;SDS011;33997;53.278;9.708;2022-08-21T15:04:47;4.97;;;1.27;;
48207;SDS011;33997;53.278;9.708;2022-08-21T15:07:13;2.72;;;0.95;;
48207;SDS011;33997;53.278;9.708;2022-08-21T15:09:38;4.55;;;1.13;;
48207;SDS011;33997;53.278;9.708;2022-08-21T15:12:04;2.15;;;0.90;;
48207;SDS011;33997;53.278;9.708;2022-08-21T15:14:32;5.18;;;0.93;;
48207;SDS011;33997;53.278;9.708;2022-08-21T15:16:59;2.58;;;1.17;;
48207;SDS011;33997;53.278;9.708;2022-08-21T15:19:25;3.63;;;1.20;;
48207;SDS011;33997;53.278;9.708;2022-08-21T15:21:50;5.28;;;1.38;;
48207;SDS011;33997;53.278;9.708;2022-08-21T15:24:16;4.45;;;1.30;;
48207;SDS011;33997;53.278;9.708;2022-08-21T15:26:42;7.20;;;1.42;;
48207;SDS011;33997;53.278;9.708;2022-08-21T15:29:09;3.78;;;1.13;;
48207;SDS011;33997;53.278;9.708;2022-08-21T15:31:34;4.10;;;0.90;;
48207;SDS011;33997;53.278;9.708;2022-08-21T15:34:00;6.03;;;1.00;;
48207;SDS011;33997;53.278;9.708;2022-08-21T15:36:27;9.65;;;1.40;;
48207;SDS011;33997;53.278;9.708;2022-08-21T15:38:52;4.50;;;1.10;;
48207;SDS011;33997;53.278;9.708;2022-08-21T15:41:18;3.30;;;1.00;;
48207;SDS011;33997;53.278;9.708;2022-08-21T15:43:50;3.28;;;1.15;;
48207;SDS011;33997;53.278;9.708;2022-08-21T15:46:17;2.22;;;0.70;;
48207;SDS011;33997;53.278;9.708;2022-08-21T15:48:45;4.45;;;1.10;;
48207;SDS011;33997;53.278;9.708;2022-08-21T15:51:11;3.45;;;0.98;;
48207;SDS011;33997;53.278;9.708;2022-08-21T15:53:37;3.38;;;0.85;;
48207;SDS011;33997;53.278;9.708;2022-08-21T15:56:05;3.22;;;0.95;;
48207;SDS011;33997;53.278;9.708;2022-08-21T15:58:35;4.32;;;1.17;;
48207;SDS011;33997;53.278;9.708;2022-08-21T16:01:01;2.75;;;1.00;;
48207;SDS011;33997;53.278;9.708;2022-08-21T16:03:26;4.40;;;1.00;;
48207;SDS011;33997;53.278;9.708;2022-08-21T16:05:52;7.25;;;0.93;;
48207;SDS011;33997;53.278;9.708;2022-08-21T16:08:20;5.78;;;1.27;;
48207;SDS011;33997;53.278;9.708;2022-08-21T16:10:47;4.43;;;1.20;;